Terminal Aerodrome Forecast
Issued by NWS

Home | Current Version | Previous Version | Text Only | Print | Product List | Glossary On
Versions: 1 2 3 4 5 6 7 8 9 10 11 12
000
FTUS41 KBTV 231700
TAFSLK
TAF
KSLK 231731Z 2318/2418 31011G18KT P6SM BKN015 OVC025
     FM232300 32013G19KT P6SM OVC025
     FM240300 32010KT P6SM BKN025
     FM241200 31010KT P6SM BKN040
     FM241500 32013G23KT P6SM SCT045=

USA.gov is the U.S. government's official web portal to all federal, state and local government web resources and services.